METAR Data
IDs: Format: Raw Decoded Include TAF

Data at: 1343 UTC 14 Dec 2019

KTXK 141324Z 20004KT 2SM BR CLR 03/03 A2986 RMK AO2 T00330028
KTXK 141305Z 22004KT 1 3/4SM BR CLR 03/03 A2986 RMK AO2 T00280028
KTXK 141253Z 23003KT 1SM BR CLR 03/03 A2986 RMK AO2 SLP112 T00330028
KTXK 141250Z 22003KT 1 1/4SM BR CLR 03/03 A2986 RMK AO2
KTXK 141238Z 24004KT 2SM BR CLR 04/03 A2986 RMK AO2 T00390033
KTXK 141230Z 26004KT 4SM BR CLR 03/03 A2986 RMK AO2 T00330028
KTXK 141153Z 21007KT 3SM BR CLR 03/03 A2985 RMK AO2 SLP107 T00330028 10061 20028 53003
KTXK 141137Z AUTO 23006KT 3SM BR CLR 04/03 A2985 RMK AO2 T00390028
KTXK 141129Z AUTO 21006KT 1 1/2SM BR CLR 03/02 A2984 RMK AO2 T00280022
KTXK 141118Z AUTO 21005KT 2 1/2SM BR CLR 03/02 A2984 RMK AO2 T00280022
KTXK 141112Z AUTO 22005KT 1SM BR CLR 03/02 A2984 RMK AO2 T00280022
KTXK 141105Z AUTO 22003KT 1 3/4SM BR CLR 03/03 A2984 RMK AO2 T00330028
KTXK 141053Z AUTO 00000KT 4SM BR CLR 04/04 A2983 RMK AO2 SLP101 T00440039
KTXK 141013Z AUTO 27003KT 3SM BR CLR 03/03 A2983 RMK AO2 T00330028
KTXK 141003Z AUTO 20005KT 2 1/2SM BR CLR 04/03 A2983 RMK AO2 T00390028
KTXK 140953Z AUTO 22004KT 4SM BR CLR 03/02 A2984 RMK AO2 SLP103 T00280022
KTXK 140951Z AUTO 21004KT 5SM BR CLR 03/02 A2984 RMK AO2
KTXK 140944Z AUTO 00000KT 2 1/2SM BR CLR 03/03 A2984 RMK AO2 T00330028
KTXK 140936Z AUTO 00000KT 1SM BR CLR 04/04 A2984 RMK AO2 VIS 1/2V2 T00440039
KTXK 140928Z AUTO 00000KT 1 3/4SM BR CLR 05/04 A2984 RMK AO2 T00500039
KTXK 140853Z AUTO 00000KT 6SM BR CLR 04/03 A2984 RMK AO2 SLP102 T00440033 56006
KTXK 140848Z AUTO 00000KT 4SM BR CLR 04/03 A2983 RMK AO2
KTXK 140846Z AUTO 00000KT 1 1/2SM BR CLR 04/03 A2983 RMK AO2 T00440033
KTXK 140834Z AUTO 00000KT 3/4SM BR CLR 04/04 A2984 RMK AO2 T00390039
KTXK 140832Z AUTO 00000KT 1 1/2SM BR CLR 04/04 A2983 RMK AO2 T00440044
KTXK 140829Z AUTO 00000KT 3SM BR CLR 05/04 A2983 RMK AO2 T00500044
KTXK 140822Z AUTO 00000KT 2 1/2SM BR CLR 05/04 A2984 RMK AO2 T00500044
KTXK 140820Z AUTO 00000KT 1SM BR CLR 05/04 A2984 RMK AO2 T00500044
KTXK 140810Z AUTO 00000KT 1/4SM FG CLR 05/04 A2984 RMK AO2 T00500039
KTXK 140759Z AUTO 00000KT 3/4SM BR CLR 05/04 A2984 RMK AO2 T00500044
KTXK 140757Z AUTO 00000KT 1 1/2SM BR CLR 05/04 A2984 RMK AO2 T00500044
KTXK 140753Z AUTO 00000KT 3SM BR CLR 05/04 A2984 RMK AO2 SLP104 T00500044
KTXK 140749Z AUTO 00000KT 3SM BR CLR 04/04 A2984 RMK AO2
KTXK 140740Z AUTO 00000KT 1 3/4SM BR CLR 04/04 A2984 RMK AO2 T00440039
KTXK 140653Z AUTO 34003KT 5SM BR CLR 06/05 A2985 RMK AO2 SLP106 T00610050
KTXK 140606Z AUTO 00000KT 10SM CLR 06/04 A2986 RMK AO2 T00560044
KTXK 140553Z AUTO 26003KT 2 1/2SM BR CLR 06/05 A2985 RMK AO2 SLP108 T00560050 10106 20056 401610028 53002
KTXK 140453Z AUTO 04003KT 5SM BR CLR 06/06 A2985 RMK AO2 SLP105 T00610056
KTXK 140353Z 00000KT 5SM BR CLR 06/06 A2985 RMK AO2 SLP108 T00610056
KTXK 140253Z 00000KT 10SM CLR 08/07 A2985 RMK AO2 SLP107 T00780067 50006
KTXK 140153Z 00000KT 10SM FEW034 09/07 A2985 RMK AO2 SLP109 T00890072
KTXK 140053Z 00000KT 8SM CLR 09/08 A2985 RMK AO2 SLP107 T00940078
KTXK 132353Z 05003KT 10SM CLR 11/08 A2983 RMK AO2 SLP100 T01060083 10161 20100 53008
KTXK 132253Z 00000KT 10SM CLR 13/09 A2982 RMK AO2 SLP097 T01280094
KTXK 132153Z VRB03KT 10SM CLR 16/08 A2979 RMK AO2 SLP088 T01560083
KTXK 132053Z AUTO 00000KT 10SM CLR 15/08 A2980 RMK AO2 SLP091 T01500083 58012
KTXK 131953Z 04007KT 10SM OVC033 14/08 A2981 RMK AO2 SLP095 T01390078
KTXK 131936Z 04006KT 10SM OVC031 14/08 A2982 RMK AO2 T01390078
KTXK 131911Z VRB03KT 10SM OVC030 14/08 A2982 RMK AO2 T01440078
KTXK 131853Z 06003KT 10SM BKN028 14/08 A2983 RMK AO2 SLP101 T01390078
KTXK 131803Z 00000KT 10SM BKN023 OVC055 13/07 A2987 RMK AO2 T01280072
KTXK 131753Z 11003KT 10SM SCT021 OVC055 13/07 A2988 RMK AO2 SLP118 T01280072 10128 20044 58024
KTXK 131625Z 09004KT 10SM FEW021 BKN027 OVC055 09/06 A2994 RMK AO2 T00890056
KTXK 131553Z 08003KT 10SM BKN035 OVC055 08/05 A2995 RMK AO2 SLP143 T00830050
KTXK 131453Z 00000KT 10SM SCT022 BKN036 OVC055 07/04 A2995 RMK AO2 SLP142 T00670039 56008
KTXK 131446Z 06003KT 10SM SCT024 BKN036 OVC055 07/04 A2995 RMK AO2 T00670039
KTXK 131400Z 04003KT 10SM OVC029 05/03 A2996 RMK AO2 T00500033
KTXK 131353Z 06003KT 10SM OVC031 05/03 A2996 RMK AO2 SLP147 T00500033
KTXK 131318Z 00000KT 10SM SCT026 BKN035 OVC070 04/03 A2996 RMK AO2 T00440033
KTXK 131253Z 00000KT 10SM BKN025 BKN033 OVC070 05/03 A2996 RMK AO2 SLP145 T00500028
KTXK 131153Z 00000KT 10SM BKN033 OVC055 04/03 A2997 RMK AO2 SLP150 T00440033 10056 20028 58016
KTXK 131053Z AUTO 00000KT 10SM OVC035 05/03 A2998 RMK AO2 SLP152 T00500033
KTXK 130953Z AUTO 00000KT 10SM OVC033 04/02 A3002 RMK AO2 SLP164 T00390022
KTXK 130853Z AUTO 00000KT 10SM CLR 03/01 A3002 RMK AO2 SLP166 T00330011 56020
KTXK 130753Z AUTO 12004KT 10SM CLR 05/01 A3004 RMK AO2 SLP172 T00500011
KTXK 130653Z AUTO 12003KT 10SM CLR 03/01 A3006 RMK AO2 SLP178 T00330011
KTXK 130553Z AUTO 00000KT 10SM CLR 03/01 A3008 RMK AO2 SLP186 T00280006 10083 20022 401221017 58008
KTXK 130453Z AUTO 00000KT 10SM CLR 03/00 A3009 RMK AO2 SLP190 T00280000
KTXK 130353Z AUTO 09003KT 10SM CLR 04/01 A3009 RMK AO2 SLP192 T00390006
KTXK 130253Z 11003KT 10SM CLR 04/01 A3010 RMK AO2 SLP195 T00390011 58007
KTXK 130153Z 12003KT 10SM CLR 04/01 A3013 RMK AO2 SLP203 T00390011